Nearby METAR Reports

 

KDPA - Chicago/Dupage, Illinois, USA
Distance from station: ESE 9mi, 15km
Updated: Tue, 15-Jan-2019 9:29pm CST
Mist, Overcast
Mist, Overcast
 Wind from SW
Wind: SW 13 mph , 20 km/h
Temperature: 30°F , -1°C
Wind Chill: 20°F , -7°C
Dew Point: 28°F , -2°C
Humidity: 93%
Barometer: 30.04 inHg , 1017.3 hPa
Summary: Mist
Clouds: Overcast
Visibility: 2 1/2 miles , 4 km
Cloud details: Overcast 500 ft
2019/01/16 03:29 KDPA 160329Z 23011KT 2 1/2SM BR OVC005 M01/M02 A3004 RMK AO2 I1000 T10061017
KARR - Chicago/Aurora, Illinois, USA
Distance from station: SSW 14mi, 22km
Updated: Tue, 15-Jan-2019 8:52pm CST
Mist, Overcast
Mist, Overcast
 Wind from SW
Wind: SW 10 mph , 17 km/h
Temperature: 30°F , -1°C
Wind Chill: 21°F , -6°C
Dew Point: 28°F , -2°C
Humidity: 93%
Barometer: 30.06 inHg , 1017.9 hPa
Summary: Mist
Clouds: Overcast
Visibility: 4 miles , 6 km
Cloud details: Overcast 500 ft
2019/01/16 02:52 KARR 160252Z 23009KT 4SM BR OVC005 M01/M02 A3006 RMK AO2 SLP186 I1001 I3002 T10061017 53001
 
KDKB - De Kalb, Illinois, USA
Distance from station: W 14mi, 23km
Updated: Tue, 15-Jan-2019 9:35pm CST
Mist, Overcast
Mist, Overcast
 Wind from WSW
Wind: WSW 15 mph , 24 km/h
Temperature: 32°F , 0°C
Wind Chill: 22°F , -6°C
Dew Point: 32°F , 0°C
Humidity: 100%
Barometer: 30.04 inHg , 1017.3 hPa
Summary: Mist
Clouds: Overcast
Visibility: 4 miles , 6 km
Cloud details: Overcast 600 ft
2019/01/16 03:35 KDKB 160335Z AUTO 25013KT 4SM BR OVC006 00/00 A3004 RMK AO2 T00001002
KORD - Chicago O'hare, Illinois, USA
Distance from station: E 25mi, 41km
Updated: Tue, 15-Jan-2019 8:51pm CST
Overcast
Overcast
 Wind from WSW
Wind: WSW 14 mph , 22 km/h, Gust: 22 mph , 35 km/h
Temperature: 30°F , -1°C
Wind Chill: 19°F , -7°C
Dew Point: 28°F , -2°C
Humidity: 93%
Barometer: 30.03 inHg , 1016.9 hPa
Clouds: Overcast
Visibility: 7 miles , 11 km
Cloud details: Overcast 800 ft
2019/01/16 02:51 KORD 160251Z 24012G19KT 7SM OVC008 M01/M02 A3003 RMK AO2 SLP178 I1000 I3000 T10111022 51002
 
KPWK - Palwaukee, Illinois, USA
Distance from station: ENE 29mi, 47km
Updated: Tue, 15-Jan-2019 9:37pm CST
Overcast
Overcast
 Wind from WSW
Wind: WSW 7 mph , 11 km/h
Temperature: 34°F , 1°C
Wind Chill: 28°F , -2°C
Dew Point: 28°F , -2°C
Humidity: 81%
Barometer: 30.04 inHg , 1017.3 hPa
Clouds: Overcast
Visibility: 8 miles , 13 km
Cloud details: Mostly cloudy 1100 ft
Overcast 1400 ft
2019/01/16 03:37 KPWK 160337Z 25006KT 8SM BKN011 OVC014 01/M02 A3004 RMK AO2 CIG 008V012 T00061022
KLOT - Romeoville/Chi, Illinois, USA
Distance from station: SE 30mi, 48km
Updated: Tue, 15-Jan-2019 9:35pm CST
Mist, Overcast
Mist, Overcast
 Wind from WSW
Wind: WSW 13 mph , 20 km/h
Temperature: 30°F , -1°C
Wind Chill: 20°F , -7°C
Dew Point: 30°F , -1°C
Humidity: 100%
Barometer: 30.07 inHg , 1018.3 hPa
Summary: Mist
Clouds: Overcast
Visibility: 3 miles , 5 km
Cloud details: Overcast 400 ft
2019/01/16 03:35 KLOT 160335Z AUTO 24011KT 3SM BR OVC004 M01/M01 A3007 RMK AO2 T10071011
 
KJOT - Joliet, Illinois, USA
Distance from station: SSE 33mi, 53km
Updated: Tue, 15-Jan-2019 9:35pm CST
Mist, Overcast
Mist, Overcast
 Wind from WSW
Wind: WSW 13 mph , 20 km/h
Temperature: 32°F , 0°C
Wind Chill: 22°F , -6°C
Dew Point: 32°F , 0°C
Humidity: 100%
Barometer: 30.09 inHg , 1019 hPa
Summary: Mist
Clouds: Overcast
Visibility: 3 miles , 5 km
Cloud details: Overcast 600 ft
2019/01/16 03:35 KJOT 160335Z AUTO 24011KT 3SM BR OVC006 00/00 A3009 RMK AO2 T00000000
KRPJ - Rochelle/Koritz, Illinois, USA
Distance from station: W 34mi, 55km
Updated: Tue, 15-Jan-2019 9:15pm CST
Mist, Overcast
Mist, Overcast
 Wind from WSW
Wind: WSW 16 mph , 26 km/h
Temperature: 32°F , 0°C
Wind Chill: 21°F , -6°C
Dew Point: 32°F , 0°C
Humidity: 100%
Barometer: 30.05 inHg , 1017.6 hPa
Summary: Mist
Clouds: Overcast
Visibility: 2 1/2 miles , 4 km
Cloud details: Overcast 400 ft
2019/01/16 03:15 KRPJ 160315Z AUTO 24014KT 2 1/2SM BR OVC004 00/00 A3005 RMK AO2 T10011001
 
KC09 - Morris-Washburn, Illinois, USA
Distance from station: S 36mi, 59km
Updated: Tue, 15-Jan-2019 9:35pm CST
Mist, Overcast
Mist, Overcast
 Wind from WSW
Wind: WSW 9 mph , 15 km/h
Temperature: 32°F , 0°C
Wind Chill: 24°F , -4°C
Dew Point: 32°F , 0°C
Humidity: 100%
Barometer: 30.08 inHg , 1018.6 hPa
Summary: Mist
Clouds: Overcast
Visibility: 3 miles , 5 km
Cloud details: Overcast 500 ft
2019/01/16 03:35 KC09 160335Z AUTO 24008KT 3SM BR OVC005 00/00 A3008 RMK AO2 T10021005
KMDW - Chicago, Illinois, USA
Distance from station: ESE 37mi, 59km
Updated: Tue, 15-Jan-2019 8:53pm CST
Light drizzle, Mist, Overcast
Light drizzle, Mist, Overcast
 Wind from WSW
Wind: WSW 15 mph , 24 km/h
Temperature: 30°F , -1°C
Wind Chill: 19°F , -7°C
Dew Point: 28°F , -2°C
Humidity: 93%
Barometer: 30.05 inHg , 1017.6 hPa
Summary: Light drizzle, Mist
Clouds: Overcast
Visibility: 5 miles , 8 km
Cloud details: Overcast 800 ft
2019/01/16 02:53 KMDW 160253Z 25013KT 5SM -DZ BR OVC008 M01/M02 A3005 RMK AO2 SLP190 P0000 60000 T10061022 55002
 
KRFD - Rockford, Illinois, USA
Distance from station: WNW 38mi, 62km
Updated: Tue, 15-Jan-2019 8:54pm CST
Light freezing, Drizzle, Mist, Overcast
Light freezing, Drizzle, Mist, Overcast
 Wind from WSW
Wind: WSW 8 mph , 13 km/h
Temperature: 32°F , 0°C
Wind Chill: 25°F , -4°C
Dew Point: 30°F , -1°C
Humidity: 93%
Barometer: 30.05 inHg , 1017.6 hPa
Summary: Light freezing, Drizzle, Mist
Clouds: Overcast
Visibility: 4 miles , 6 km
Cloud details: Overcast 600 ft
2019/01/16 02:54 KRFD 160254Z 24007KT 4SM -FZDZ BR OVC006 00/M01 A3005 RMK AO2 SLP185 P0000 60000 I1001 I3001 T00001011 51004
KUGN - Waukegan, Illinois, USA
Distance from station: NE 42mi, 68km
Updated: Tue, 15-Jan-2019 8:55pm CST
Overcast
Overcast
 Wind from WSW
Wind: WSW 13 mph , 20 km/h, Gust: 23 mph , 37 km/h
Temperature: 30°F , -1°C
Wind Chill: 20°F , -7°C
Dew Point: 27°F , -3°C
Humidity: 86%
Barometer: 29.99 inHg , 1015.6 hPa
Clouds: Overcast
Visibility: 9 miles , 14 km
Cloud details: Overcast 1000 ft
2019/01/16 02:55 KUGN 160255Z AUTO 25011G20KT 230V290 9SM OVC010 M01/M03 A2999 RMK AO2 PK WND 23026/0231 SLP170 T10061033 55002
 
KBUU - Burlington, Wisconsin, USA
Distance from station: N 50mi, 81km
Updated: Tue, 15-Jan-2019 9:35pm CST
Overcast
Overcast
 Wind from W
Wind: W 8 mph , 13 km/h
Temperature: 30°F , -1°C
Wind Chill: 22°F , -6°C
Dew Point: 28°F , -2°C
Humidity: 93%
Barometer: 30.00 inHg , 1015.9 hPa
Clouds: Overcast
Visibility: 7 miles , 11 km
Cloud details: Mostly cloudy 1200 ft
Overcast 1700 ft
2019/01/16 03:35 KBUU 160335Z AUTO 28007KT 7SM BKN012 OVC017 M01/M02 A3000 RMK AO2 T10111025